Time,TemperatureF,DewpointF,PressureIn,WindDirection,WindDirectionDegrees,WindSpeedMPH,WindSpeedGustMPH,Humidity,HourlyPrecipIn,Conditions,Clouds,dailyrainin,SoftwareType,DateUTC
2013-08-10 00:01:00,71.6,71.3,29.83,South,171,0.0,0.0,99,0.00,,,0.00,VWS V14.01,2013-08-10 04:01:00,
2013-08-10 00:07:00,71.6,71.3,29.83,South,171,0.0,0.0,99,0.00,,,0.00,VWS V14.01,2013-08-10 04:07:00,
2013-08-10 00:12:00,71.6,71.3,29.83,South,171,0.0,0.0,99,0.00,,,0.00,VWS V14.01,2013-08-10 04:12:00,
2013-08-10 00:17:00,71.6,71.3,29.83,South,171,0.0,0.0,99,0.00,,,0.00,VWS V14.01,2013-08-10 04:17:00,
2013-08-10 00:22:00,71.6,71.3,29.83,South,171,0.0,0.0,99,0.00,,,0.00,VWS V14.01,2013-08-10 04:22:00,
2013-08-10 00:27:00,71.6,71.3,29.83,South,171,0.0,0.0,99,0.00,,,0.00,VWS V14.01,2013-08-10 04:27:00,
2013-08-10 00:32:00,71.6,71.3,29.83,South,171,0.0,0.0,99,0.00,,,0.00,VWS V14.01,2013-08-10 04:32:00,
2013-08-10 00:37:00,71.6,71.3,29.83,South,171,0.0,0.0,99,0.00,,,0.00,VWS V14.01,2013-08-10 04:37:00,
2013-08-10 00:42:00,71.6,71.3,29.83,South,171,0.0,0.0,99,0.00,,,0.00,VWS V14.01,2013-08-10 04:42:00,
2013-08-10 00:47:00,71.5,71.2,29.83,South,171,0.0,0.0,99,0.00,,,0.00,VWS V14.01,2013-08-10 04:47:00,
2013-08-10 00:52:00,71.5,71.2,29.83,South,171,0.0,0.0,99,0.00,,,0.00,VWS V14.01,2013-08-10 04:52:00,
2013-08-10 00:58:00,71.4,71.1,29.83,South,171,0.0,0.0,99,0.00,,,0.00,VWS V14.01,2013-08-10 04:58:00,
2013-08-10 01:03:00,71.3,71.0,29.83,South,171,0.0,0.0,99,0.00,,,0.00,VWS V14.01,2013-08-10 05:03:00,
2013-08-10 01:08:00,71.2,70.9,29.83,South,171,0.0,0.0,99,0.00,,,0.00,VWS V14.01,2013-08-10 05:08:00,
2013-08-10 01:13:00,71.1,70.8,29.83,South,171,0.0,0.0,99,0.00,,,0.00,VWS V14.01,2013-08-10 05:13:00,
2013-08-10 01:18:00,71.0,70.7,29.83,South,171,0.0,0.0,99,0.00,,,0.00,VWS V14.01,2013-08-10 05:18:00,
2013-08-10 01:23:00,70.9,70.6,29.83,South,171,0.0,0.0,99,0.00,,,0.00,VWS V14.01,2013-08-10 05:23:00,
2013-08-10 01:28:00,70.7,70.4,29.83,South,171,0.0,0.0,99,0.00,,,0.00,VWS V14.01,2013-08-10 05:28:00,
2013-08-10 01:33:00,70.6,70.3,29.83,South,171,0.0,0.0,99,0.00,,,0.00,VWS V14.01,2013-08-10 05:33:00,
2013-08-10 01:39:00,70.4,70.1,29.83,South,171,0.0,0.0,99,0.00,,,0.00,VWS V14.01,2013-08-10 05:39:00,
2013-08-10 01:44:00,70.1,69.8,29.83,South,171,0.0,0.0,99,0.00,,,0.00,VWS V14.01,2013-08-10 05:44:00,
2013-08-10 01:49:00,70.0,69.7,29.83,South,171,0.0,0.0,99,0.00,,,0.00,VWS V14.01,2013-08-10 05:49:00,
2013-08-10 01:54:00,69.8,69.5,29.83,South,171,0.0,0.0,99,0.00,,,0.00,VWS V14.01,2013-08-10 05:54:00,
2013-08-10 01:59:00,69.6,69.3,29.84,South,171,0.0,0.0,99,0.00,,,0.00,VWS V14.01,2013-08-10 05:59:00,
2013-08-10 02:04:00,69.5,69.2,29.84,South,171,0.0,0.0,99,0.00,,,0.00,VWS V14.01,2013-08-10 06:04:00,
2013-08-10 02:09:00,69.3,69.0,29.84,South,171,0.0,0.0,99,0.00,,,0.00,VWS V14.01,2013-08-10 06:09:00,
2013-08-10 02:14:00,69.3,69.0,29.85,South,171,0.0,0.0,99,0.00,,,0.00,VWS V14.01,2013-08-10 06:14:00,
2013-08-10 02:19:00,69.4,69.1,29.85,South,171,0.0,0.0,99,0.00,,,0.00,VWS V14.01,2013-08-10 06:19:00,
2013-08-10 02:24:00,69.3,69.0,29.85,South,171,0.0,0.0,99,0.00,,,0.00,VWS V14.01,2013-08-10 06:24:00,
2013-08-10 02:30:00,69.4,69.1,29.86,South,171,0.0,0.0,99,0.00,,,0.00,VWS V14.01,2013-08-10 06:30:00,
2013-08-10 02:35:00,69.4,69.1,29.86,South,171,0.0,0.0,99,0.00,,,0.00,VWS V14.01,2013-08-10 06:35:00,
2013-08-10 02:40:00,69.5,69.2,29.86,South,171,0.0,0.0,99,0.00,,,0.00,VWS V14.01,2013-08-10 06:40:00,
2013-08-10 02:45:00,69.6,69.3,29.86,South,171,0.0,0.0,99,0.00,,,0.00,VWS V14.01,2013-08-10 06:45:00,
2013-08-10 02:50:00,69.5,69.2,29.86,South,171,0.0,0.0,99,0.00,,,0.00,VWS V14.01,2013-08-10 06:50:00,
2013-08-10 02:55:00,69.4,69.1,29.86,South,171,0.0,0.0,99,0.00,,,0.00,VWS V14.01,2013-08-10 06:55:00,
2013-08-10 03:00:00,69.2,68.9,29.86,South,171,0.0,0.0,99,0.00,,,0.00,VWS V14.01,2013-08-10 07:00:00,
2013-08-10 03:05:00,69.0,68.7,29.86,South,171,0.0,0.0,99,0.00,,,0.00,VWS V14.01,2013-08-10 07:05:00,
2013-08-10 03:10:00,68.8,68.5,29.86,South,171,0.0,0.0,99,0.00,,,0.00,VWS V14.01,2013-08-10 07:10:00,
2013-08-10 03:16:00,68.7,68.4,29.87,South,171,0.0,0.0,99,0.00,,,0.00,VWS V14.01,2013-08-10 07:16:00,
2013-08-10 03:21:00,68.5,68.2,29.87,South,171,0.0,0.0,99,0.00,,,0.00,VWS V14.01,2013-08-10 07:21:00,
2013-08-10 03:26:00,68.4,68.1,29.87,South,171,0.0,0.0,99,0.00,,,0.00,VWS V14.01,2013-08-10 07:26:00,
2013-08-10 03:31:00,68.2,67.9,29.87,South,171,0.0,0.0,99,0.00,,,0.00,VWS V14.01,2013-08-10 07:31:00,
2013-08-10 03:36:00,67.8,67.2,29.87,South,171,0.0,0.0,98,0.00,,,0.00,VWS V14.01,2013-08-10 07:36:00,
2013-08-10 03:41:00,67.6,67.0,29.88,South,171,0.0,0.0,98,0.00,,,0.00,VWS V14.01,2013-08-10 07:41:00,
2013-08-10 03:46:00,67.3,66.7,29.88,South,171,0.0,0.0,98,0.00,,,0.00,VWS V14.01,2013-08-10 07:46:00,
2013-08-10 03:51:00,67.0,66.4,29.88,South,171,0.0,0.0,98,0.00,,,0.00,VWS V14.01,2013-08-10 07:51:00,
2013-08-10 03:56:00,66.7,66.1,29.88,South,171,0.0,0.0,98,0.00,,,0.00,VWS V14.01,2013-08-10 07:56:00,
2013-08-10 04:01:00,66.4,65.8,29.88,South,171,0.0,0.0,98,0.00,,,0.00,VWS V14.01,2013-08-10 08:01:00,
2013-08-10 04:06:00,66.2,65.6,29.88,South,171,0.0,0.0,98,0.00,,,0.00,VWS V14.01,2013-08-10 08:06:00,
2013-08-10 04:11:00,66.0,65.4,29.88,South,171,0.0,0.0,98,0.00,,,0.00,VWS V14.01,2013-08-10 08:11:00,
2013-08-10 04:16:00,65.8,65.2,29.88,South,171,0.0,0.0,98,0.00,,,0.00,VWS V14.01,2013-08-10 08:16:00,
2013-08-10 04:22:00,65.6,65.0,29.88,South,171,0.0,0.0,98,0.00,,,0.00,VWS V14.01,2013-08-10 08:22:00,
2013-08-10 04:27:00,65.4,64.8,29.88,South,171,0.0,0.0,98,0.00,,,0.00,VWS V14.01,2013-08-10 08:27:00,
2013-08-10 04:32:00,65.3,64.7,29.88,South,171,0.0,0.0,98,0.00,,,0.00,VWS V14.01,2013-08-10 08:32:00,
2013-08-10 04:37:00,65.2,64.6,29.88,South,171,0.0,0.0,98,0.00,,,0.00,VWS V14.01,2013-08-10 08:37:00,
2013-08-10 04:42:00,65.0,64.4,29.89,South,171,0.0,0.0,98,0.00,,,0.00,VWS V14.01,2013-08-10 08:42:00,
2013-08-10 04:47:00,64.8,64.2,29.88,South,171,0.0,0.0,98,0.00,,,0.00,VWS V14.01,2013-08-10 08:47:00,
2013-08-10 04:52:00,64.7,64.4,29.89,South,171,0.0,0.0,99,0.00,,,0.00,VWS V14.01,2013-08-10 08:52:00,
2013-08-10 04:57:00,64.7,64.4,29.89,South,171,0.0,0.0,99,0.00,,,0.00,VWS V14.01,2013-08-10 08:57:00,
2013-08-10 05:02:00,64.6,64.3,29.89,South,171,0.0,0.0,99,0.00,,,0.00,VWS V14.01,2013-08-10 09:02:00,
2013-08-10 05:07:00,64.6,64.3,29.89,South,171,0.0,0.0,99,0.00,,,0.00,VWS V14.01,2013-08-10 09:07:00,
2013-08-10 05:12:00,64.5,64.2,29.89,South,171,0.0,0.0,99,0.00,,,0.00,VWS V14.01,2013-08-10 09:12:00,
2013-08-10 05:17:00,64.3,64.0,29.90,South,171,0.0,0.0,99,0.00,,,0.00,VWS V14.01,2013-08-10 09:17:00,
2013-08-10 05:22:00,64.2,63.9,29.90,South,171,0.0,0.0,99,0.00,,,0.00,VWS V14.01,2013-08-10 09:22:00,
2013-08-10 05:27:00,64.1,63.8,29.90,South,171,0.0,0.0,99,0.00,,,0.00,VWS V14.01,2013-08-10 09:27:00,
2013-08-10 05:32:00,64.1,63.8,29.90,South,171,0.0,0.0,99,0.00,,,0.00,VWS V14.01,2013-08-10 09:32:00,
2013-08-10 05:37:00,64.0,63.7,29.90,South,171,0.0,0.0,99,0.00,,,0.00,VWS V14.01,2013-08-10 09:37:00,
2013-08-10 05:43:00,63.8,63.5,29.90,South,171,0.0,0.0,99,0.00,,,0.00,VWS V14.01,2013-08-10 09:43:00,
2013-08-10 05:48:00,63.7,63.4,29.90,South,171,0.0,0.0,99,0.00,,,0.00,VWS V14.01,2013-08-10 09:48:00,
2013-08-10 05:53:00,63.5,63.2,29.91,South,171,0.0,0.0,99,0.00,,,0.00,VWS V14.01,2013-08-10 09:53:00,
2013-08-10 05:58:00,63.3,63.0,29.91,South,171,0.0,0.0,99,0.00,,,0.00,VWS V14.01,2013-08-10 09:58:00,
2013-08-10 06:03:00,63.1,62.8,29.91,South,171,0.0,0.0,99,0.00,,,0.00,VWS V14.01,2013-08-10 10:03:00,
2013-08-10 06:08:00,63.0,62.7,29.91,South,171,0.0,0.0,99,0.00,,,0.00,VWS V14.01,2013-08-10 10:08:00,
2013-08-10 06:13:00,63.0,62.7,29.91,South,171,0.0,0.0,99,0.00,,,0.00,VWS V14.01,2013-08-10 10:13:00,
2013-08-10 06:18:00,62.9,62.6,29.91,South,171,0.0,0.0,99,0.00,,,0.00,VWS V14.01,2013-08-10 10:18:00,
2013-08-10 06:23:00,62.9,62.6,29.91,South,171,0.0,0.0,99,0.00,,,0.00,VWS V14.01,2013-08-10 10:23:00,
2013-08-10 06:28:00,62.9,62.6,29.92,South,171,0.0,0.0,99,0.00,,,0.00,VWS V14.01,2013-08-10 10:28:00,
2013-08-10 06:34:00,62.9,62.6,29.91,South,171,0.0,0.0,99,0.00,,,0.00,VWS V14.01,2013-08-10 10:34:00,
2013-08-10 06:39:00,62.9,62.6,29.92,South,171,0.0,0.0,99,0.00,,,0.00,VWS V14.01,2013-08-10 10:39:00,
2013-08-10 06:44:00,63.0,62.7,29.92,South,171,0.0,0.0,99,0.00,,,0.00,VWS V14.01,2013-08-10 10:44:00,
2013-08-10 06:49:00,63.2,62.9,29.92,South,171,0.0,0.0,99,0.00,,,0.00,VWS V14.01,2013-08-10 10:49:00,
2013-08-10 06:54:00,63.2,62.9,29.92,South,171,0.0,0.0,99,0.00,,,0.00,VWS V14.01,2013-08-10 10:54:00,
2013-08-10 06:59:00,63.3,63.0,29.92,South,171,0.0,0.0,99,0.00,,,0.00,VWS V14.01,2013-08-10 10:59:00,
2013-08-10 07:04:00,63.4,63.1,29.92,South,171,0.0,0.0,99,0.00,,,0.00,VWS V14.01,2013-08-10 11:04:00,
2013-08-10 07:09:00,63.4,63.1,29.93,South,171,0.0,0.0,99,0.00,,,0.00,VWS V14.01,2013-08-10 11:09:00,
2013-08-10 07:14:00,63.6,63.3,29.93,South,171,0.0,0.0,99,0.00,,,0.00,VWS V14.01,2013-08-10 11:14:00,
2013-08-10 07:19:00,63.8,63.8,29.93,South,171,0.0,0.0,100,0.00,,,0.00,VWS V14.01,2013-08-10 11:19:00,
2013-08-10 07:24:00,64.0,64.0,29.93,South,171,0.0,0.0,100,0.00,,,0.00,VWS V14.01,2013-08-10 11:24:00,
2013-08-10 07:29:00,64.3,64.3,29.94,South,171,0.0,0.0,100,0.00,,,0.00,VWS V14.01,2013-08-10 11:29:00,
2013-08-10 07:34:00,64.6,64.6,29.94,South,171,0.0,0.0,100,0.00,,,0.00,VWS V14.01,2013-08-10 11:34:00,
2013-08-10 07:39:00,64.9,64.9,29.93,South,171,0.0,0.0,100,0.00,,,0.00,VWS V14.01,2013-08-10 11:39:00,
2013-08-10 07:45:00,65.2,65.2,29.93,South,171,0.0,0.0,100,0.00,,,0.00,VWS V14.01,2013-08-10 11:45:00,
2013-08-10 07:50:00,65.5,65.5,29.93,South,171,0.0,0.0,100,0.00,,,0.00,VWS V14.01,2013-08-10 11:50:00,
2013-08-10 07:55:00,66.1,66.1,29.93,South,171,0.0,0.0,100,0.00,,,0.00,VWS V14.01,2013-08-10 11:55:00,
2013-08-10 08:00:00,66.6,66.6,29.93,South,171,0.0,0.0,100,0.00,,,0.00,VWS V14.01,2013-08-10 12:00:00,
2013-08-10 08:05:00,67.0,67.0,29.94,South,171,0.0,0.0,100,0.00,,,0.00,VWS V14.01,2013-08-10 12:05:00,
2013-08-10 08:10:00,67.5,67.5,29.94,South,171,0.0,0.0,100,0.00,,,0.00,VWS V14.01,2013-08-10 12:10:00,
2013-08-10 08:15:00,67.7,67.7,29.94,South,171,0.0,0.0,100,0.00,,,0.00,VWS V14.01,2013-08-10 12:15:00,
2013-08-10 08:20:00,68.2,68.2,29.94,South,171,0.0,0.0,100,0.00,,,0.00,VWS V14.01,2013-08-10 12:20:00,
2013-08-10 08:25:00,68.5,68.5,29.94,South,171,0.0,0.0,100,0.00,,,0.00,VWS V14.01,2013-08-10 12:25:00,
2013-08-10 08:30:00,68.5,68.5,29.94,South,171,0.0,0.0,100,0.00,,,0.00,VWS V14.01,2013-08-10 12:30:00,
2013-08-10 08:35:00,68.0,68.0,29.94,SE,128,0.0,0.0,100,0.00,,,0.00,VWS V14.01,2013-08-10 12:35:00,
2013-08-10 08:40:00,68.5,68.5,29.94,SE,128,0.0,0.0,100,0.00,,,0.00,VWS V14.01,2013-08-10 12:40:00,
2013-08-10 08:45:00,69.2,68.9,29.94,SE,128,0.0,0.0,99,0.00,,,0.00,VWS V14.01,2013-08-10 12:45:00,
2013-08-10 08:50:00,69.4,69.1,29.94,SE,128,0.0,0.0,99,0.00,,,0.00,VWS V14.01,2013-08-10 12:50:00,
2013-08-10 08:55:00,69.6,67.8,29.94,SE,128,0.0,0.0,94,0.00,,,0.00,VWS V14.01,2013-08-10 12:55:00,
2013-08-10 09:00:00,70.3,68.8,29.94,SE,128,0.0,0.0,95,0.00,,,0.00,VWS V14.01,2013-08-10 13:00:00,
2013-08-10 09:05:00,70.6,67.5,29.94,SE,128,0.0,0.0,90,0.00,,,0.00,VWS V14.01,2013-08-10 13:05:00,
2013-08-10 09:10:00,71.3,69.2,29.94,SE,128,0.0,0.0,93,0.00,,,0.00,VWS V14.01,2013-08-10 13:10:00,
2013-08-10 09:15:00,71.7,67.6,29.94,ENE,76,0.0,0.0,87,0.00,,,0.00,VWS V14.01,2013-08-10 13:15:00,
2013-08-10 09:21:00,72.1,68.3,29.94,ENE,73,0.0,0.0,88,0.00,,,0.00,VWS V14.01,2013-08-10 13:21:00,
2013-08-10 09:26:00,72.4,69.3,29.94,NE,51,0.0,0.0,90,0.00,,,0.00,VWS V14.01,2013-08-10 13:26:00,
2013-08-10 09:31:00,72.6,67.8,29.94,NE,51,0.0,0.0,85,0.00,,,0.00,VWS V14.01,2013-08-10 13:31:00,
2013-08-10 09:36:00,73.0,68.2,29.94,NE,51,0.0,0.0,85,0.00,,,0.00,VWS V14.01,2013-08-10 13:36:00,
2013-08-10 09:41:00,73.4,68.3,29.94,SSE,154,0.0,0.0,84,0.00,,,0.00,VWS V14.01,2013-08-10 13:41:00,
2013-08-10 09:46:00,73.6,68.8,29.94,SSE,153,0.0,0.0,85,0.00,,,0.00,VWS V14.01,2013-08-10 13:46:00,
2013-08-10 09:51:00,74.0,69.6,29.94,West,267,0.0,0.0,86,0.00,,,0.00,VWS V14.01,2013-08-10 13:51:00,
2013-08-10 09:56:00,74.2,68.0,29.94,WNW,294,0.0,0.0,81,0.00,,,0.00,VWS V14.01,2013-08-10 13:56:00,
2013-08-10 10:01:00,74.7,68.8,29.94,WNW,294,0.0,0.0,82,0.00,,,0.00,VWS V14.01,2013-08-10 14:01:00,
2013-08-10 10:06:00,75.0,69.1,29.94,East,88,0.0,0.0,82,0.00,,,0.00,VWS V14.01,2013-08-10 14:06:00,
2013-08-10 10:11:00,75.2,69.0,29.94,ENE,61,0.0,0.0,81,0.00,,,0.00,VWS V14.01,2013-08-10 14:11:00,
2013-08-10 10:16:00,75.5,69.6,29.93,ENE,63,0.0,0.0,82,0.00,,,0.00,VWS V14.01,2013-08-10 14:16:00,
2013-08-10 10:21:00,75.7,69.5,29.93,ENE,62,0.0,0.0,81,0.00,,,0.00,VWS V14.01,2013-08-10 14:21:00,
2013-08-10 10:26:00,76.1,68.8,29.94,ENE,62,0.0,0.0,78,0.00,,,0.00,VWS V14.01,2013-08-10 14:26:00,
2013-08-10 10:31:00,76.3,68.2,29.94,North,11,3.0,4.0,76,0.00,,,0.00,VWS V14.01,2013-08-10 14:31:00,
2013-08-10 10:36:00,76.3,68.6,29.94,ENE,76,2.0,4.0,77,0.00,,,0.00,VWS V14.01,2013-08-10 14:36:00,
2013-08-10 10:41:00,76.5,69.1,29.93,SE,140,0.0,5.0,78,0.00,,,0.00,VWS V14.01,2013-08-10 14:41:00,
2013-08-10 10:46:00,76.6,68.5,29.94,SE,140,0.0,5.0,76,0.00,,,0.00,VWS V14.01,2013-08-10 14:46:00,
2013-08-10 10:51:00,76.6,70.0,29.93,East,98,0.0,5.0,80,0.00,,,0.00,VWS V14.01,2013-08-10 14:51:00,
2013-08-10 10:56:00,76.6,68.9,29.93,East,85,0.0,5.0,77,0.00,,,0.00,VWS V14.01,2013-08-10 14:56:00,
2013-08-10 11:01:00,75.9,66.2,29.93,NNE,26,0.0,1.0,72,0.00,,,0.00,VWS V14.01,2013-08-10 15:01:00,
2013-08-10 11:06:00,75.5,68.2,29.93,SE,126,2.0,4.0,78,0.00,,,0.00,VWS V14.01,2013-08-10 15:06:00,
2013-08-10 11:12:00,75.1,67.8,29.93,East,98,2.0,4.0,78,0.00,,,0.00,VWS V14.01,2013-08-10 15:12:00,
2013-08-10 11:17:00,75.3,68.3,29.94,NE,45,1.0,4.0,79,0.00,,,0.00,VWS V14.01,2013-08-10 15:17:00,
2013-08-10 11:22:00,75.4,66.9,29.94,East,80,0.0,4.0,75,0.00,,,0.00,VWS V14.01,2013-08-10 15:22:00,
2013-08-10 11:27:00,75.7,66.8,29.93,ENE,76,0.0,5.0,74,0.00,,,0.00,VWS V14.01,2013-08-10 15:27:00,
2013-08-10 11:32:00,75.5,67.8,29.94,ENE,65,0.0,3.0,77,0.00,,,0.00,VWS V14.01,2013-08-10 15:32:00,
2013-08-10 11:37:00,75.6,69.4,29.94,East,82,1.0,4.0,81,0.00,,,0.00,VWS V14.01,2013-08-10 15:37:00,
2013-08-10 11:42:00,75.7,66.0,29.94,North,350,0.0,5.0,72,0.00,,,0.00,VWS V14.01,2013-08-10 15:42:00,
2013-08-10 11:47:00,75.8,66.5,29.94,ENE,74,0.0,5.0,73,0.00,,,0.00,VWS V14.01,2013-08-10 15:47:00,
2013-08-10 11:52:00,75.7,65.2,29.94,ESE,113,0.0,5.0,70,0.00,,,0.00,VWS V14.01,2013-08-10 15:52:00,
2013-08-10 11:57:00,76.0,67.1,29.94,ESE,118,0.0,5.0,74,0.00,,,0.00,VWS V14.01,2013-08-10 15:57:00,
2013-08-10 12:03:00,76.7,67.0,29.93,ESE,118,0.0,1.0,72,0.00,,,0.00,VWS V14.01,2013-08-10 16:03:00,
2013-08-10 12:08:00,77.2,64.5,29.93,NE,48,0.0,2.0,65,0.00,,,0.00,VWS V14.01,2013-08-10 16:08:00,
2013-08-10 12:13:00,77.5,68.6,29.93,ESE,117,0.0,7.0,74,0.00,,,0.00,VWS V14.01,2013-08-10 16:13:00,
2013-08-10 12:18:00,77.6,68.3,29.93,ESE,102,1.0,7.0,73,0.00,,,0.00,VWS V14.01,2013-08-10 16:18:00,
2013-08-10 12:23:00,77.3,68.0,29.93,SSE,150,0.0,7.0,73,0.00,,,0.00,VWS V14.01,2013-08-10 16:23:00,
2013-08-10 12:28:00,77.1,66.2,29.93,North,360,0.0,7.0,69,0.00,,,0.00,VWS V14.01,2013-08-10 16:28:00,
2013-08-10 12:33:00,77.4,69.6,29.93,NE,43,0.0,2.0,77,0.00,,,0.00,VWS V14.01,2013-08-10 16:33:00,
2013-08-10 12:38:00,77.4,69.2,29.93,NE,44,0.0,2.0,76,0.00,,,0.00,VWS V14.01,2013-08-10 16:38:00,
2013-08-10 12:43:00,77.3,68.8,29.93,NE,44,0.0,2.0,75,0.00,,,0.00,VWS V14.01,2013-08-10 16:43:00,
2013-08-10 12:48:00,77.6,68.3,29.93,NE,42,0.0,2.0,73,0.00,,,0.00,VWS V14.01,2013-08-10 16:48:00,
2013-08-10 12:49:00,77.6,68.3,29.93,NE,42,0.0,2.0,73,0.00,,,0.00,VWS V14.01,2013-08-10 16:49:00,
2013-08-10 12:54:00,78.3,67.3,29.93,NE,53,0.0,5.0,69,0.00,,,0.00,VWS V14.01,2013-08-10 16:54:00,
2013-08-10 12:59:00,78.7,68.9,29.93,NE,53,0.0,5.0,72,0.00,,,0.00,VWS V14.01,2013-08-10 16:59:00,
2013-08-10 13:04:00,78.7,68.9,29.93,NE,42,1.0,2.0,72,0.00,,,0.00,VWS V14.01,2013-08-10 17:04:00,
2013-08-10 13:09:00,78.6,67.6,29.93,NE,50,0.0,2.0,69,0.00,,,0.00,VWS V14.01,2013-08-10 17:09:00,
2013-08-10 13:14:00,78.7,68.9,29.93,NE,50,0.0,2.0,72,0.00,,,0.00,VWS V14.01,2013-08-10 17:14:00,
2013-08-10 13:19:00,78.9,68.7,29.93,South,177,0.0,2.0,71,0.00,,,0.00,VWS V14.01,2013-08-10 17:19:00,
2013-08-10 13:24:00,78.8,70.2,29.93,NNW,342,1.0,5.0,75,0.00,,,0.00,VWS V14.01,2013-08-10 17:24:00,
2013-08-10 13:29:00,79.0,66.7,29.93,ENE,61,0.0,5.0,66,0.00,,,0.00,VWS V14.01,2013-08-10 17:29:00,
2013-08-10 13:34:00,79.5,69.3,29.93,ENE,61,0.0,1.0,71,0.00,,,0.00,VWS V14.01,2013-08-10 17:34:00,
2013-08-10 13:40:00,80.0,69.3,29.93,South,169,0.0,2.0,70,0.00,,,0.00,VWS V14.01,2013-08-10 17:40:00,
2013-08-10 13:45:00,80.2,65.1,29.93,NW,325,1.0,4.0,60,0.00,,,0.00,VWS V14.01,2013-08-10 17:45:00,
2013-08-10 13:50:00,80.1,64.0,29.92,NE,46,2.0,5.0,58,0.00,,,0.00,VWS V14.01,2013-08-10 17:50:00,
2013-08-10 13:55:00,80.3,69.2,29.92,SSE,162,0.0,5.0,69,0.00,,,0.00,VWS V14.01,2013-08-10 17:55:00,
2013-08-10 14:00:00,80.1,65.4,29.92,North,5,4.0,6.0,61,0.00,,,0.00,VWS V14.01,2013-08-10 18:00:00,
2013-08-10 14:05:00,79.5,67.6,29.92,South,170,0.0,2.0,67,0.00,,,0.00,VWS V14.01,2013-08-10 18:05:00,
2013-08-10 14:10:00,79.6,67.7,29.92,ENE,70,0.0,2.0,67,0.00,,,0.00,VWS V14.01,2013-08-10 18:10:00,
2013-08-10 14:15:00,80.1,65.0,29.92,North,360,0.0,3.0,60,0.00,,,0.00,VWS V14.01,2013-08-10 18:15:00,
2013-08-10 14:20:00,80.4,66.7,29.92,NE,34,0.0,3.0,63,0.00,,,0.00,VWS V14.01,2013-08-10 18:20:00,
2013-08-10 14:25:00,80.5,69.8,29.92,SSW,213,0.0,3.0,70,0.00,,,0.00,VWS V14.01,2013-08-10 18:25:00,
2013-08-10 14:30:00,80.4,65.3,29.92,NE,53,2.0,4.0,60,0.00,,,0.00,VWS V14.01,2013-08-10 18:30:00,
2013-08-10 14:35:00,80.5,63.9,29.92,East,88,0.0,2.0,57,0.00,,,0.00,VWS V14.01,2013-08-10 18:35:00,
2013-08-10 14:40:00,80.8,64.7,29.92,East,85,2.0,4.0,58,0.00,,,0.00,VWS V14.01,2013-08-10 18:40:00,
2013-08-10 14:45:00,81.0,69.0,29.92,SE,134,0.0,5.0,67,0.00,,,0.00,VWS V14.01,2013-08-10 18:45:00,
2013-08-10 14:51:00,81.1,69.1,29.92,East,94,0.0,5.0,67,0.00,,,0.00,VWS V14.01,2013-08-10 18:51:00,
2013-08-10 14:56:00,80.7,64.6,29.92,ESE,120,0.0,6.0,58,0.00,,,0.00,VWS V14.01,2013-08-10 18:56:00,
2013-08-10 15:01:00,80.0,67.6,29.92,SE,144,0.0,0.0,66,0.00,,,0.00,VWS V14.01,2013-08-10 19:01:00,
2013-08-10 15:06:00,79.7,66.9,29.92,NW,319,2.0,3.0,65,0.00,,,0.00,VWS V14.01,2013-08-10 19:06:00,
2013-08-10 15:11:00,80.0,67.2,29.92,North,360,0.0,3.0,65,0.00,,,0.00,VWS V14.01,2013-08-10 19:11:00,
2013-08-10 15:16:00,80.5,67.7,29.92,ENE,78,0.0,3.0,65,0.00,,,0.00,VWS V14.01,2013-08-10 19:16:00,
2013-08-10 15:21:00,80.7,71.2,29.92,ENE,76,0.0,3.0,73,0.00,,,0.00,VWS V14.01,2013-08-10 19:21:00,
2013-08-10 15:26:00,81.1,68.7,29.92,ENE,76,0.0,3.0,66,0.00,,,0.00,VWS V14.01,2013-08-10 19:26:00,
2013-08-10 15:31:00,81.5,70.4,29.92,SSE,163,2.0,2.0,69,0.00,,,0.00,VWS V14.01,2013-08-10 19:31:00,
2013-08-10 15:37:00,81.5,69.9,29.92,East,98,0.0,5.0,68,0.00,,,0.00,VWS V14.01,2013-08-10 19:37:00,
2013-08-10 15:42:00,81.2,70.5,29.92,SE,145,0.0,5.0,70,0.00,,,0.00,VWS V14.01,2013-08-10 19:42:00,
2013-08-10 15:47:00,81.0,68.1,29.92,East,97,0.0,5.0,65,0.00,,,0.00,VWS V14.01,2013-08-10 19:47:00,
2013-08-10 15:52:00,80.9,68.5,29.92,East,81,0.0,5.0,66,0.00,,,0.00,VWS V14.01,2013-08-10 19:52:00,
2013-08-10 15:57:00,81.1,69.6,29.92,SSE,160,0.0,5.0,68,0.00,,,0.00,VWS V14.01,2013-08-10 19:57:00,
2013-08-10 16:02:00,81.2,67.9,29.92,NNE,16,0.0,0.0,64,0.00,,,0.00,VWS V14.01,2013-08-10 20:02:00,
2013-08-10 16:07:00,81.4,66.7,29.92,NNE,16,0.0,1.0,61,0.00,,,0.00,VWS V14.01,2013-08-10 20:07:00,
2013-08-10 16:12:00,81.3,68.4,29.92,ESE,103,0.0,2.0,65,0.00,,,0.00,VWS V14.01,2013-08-10 20:12:00,
2013-08-10 16:17:00,80.5,65.3,29.92,North,5,0.0,4.0,60,0.00,,,0.00,VWS V14.01,2013-08-10 20:17:00,
2013-08-10 16:22:00,80.0,66.3,29.92,South,170,0.0,5.0,63,0.00,,,0.00,VWS V14.01,2013-08-10 20:22:00,
2013-08-10 16:28:00,79.4,65.7,29.92,South,170,0.0,5.0,63,0.00,,,0.00,VWS V14.01,2013-08-10 20:28:00,
2013-08-10 16:33:00,78.9,68.7,29.92,South,170,0.0,0.0,71,0.00,,,0.00,VWS V14.01,2013-08-10 20:33:00,
2013-08-10 16:38:00,78.3,67.3,29.92,South,170,0.0,1.0,69,0.00,,,0.00,VWS V14.01,2013-08-10 20:38:00,
2013-08-10 16:43:00,77.7,65.9,29.92,South,170,0.0,1.0,67,0.00,,,0.00,VWS V14.01,2013-08-10 20:43:00,
2013-08-10 16:48:00,77.3,66.8,29.92,West,278,0.0,1.0,70,0.00,,,0.00,VWS V14.01,2013-08-10 20:48:00,
2013-08-10 16:53:00,76.9,67.2,29.92,West,278,0.0,1.0,72,0.00,,,0.00,VWS V14.01,2013-08-10 20:53:00,
2013-08-10 16:58:00,76.6,66.1,29.92,West,278,0.0,1.0,70,0.00,,,0.00,VWS V14.01,2013-08-10 20:58:00,
2013-08-10 17:03:00,76.3,65.0,29.92,SE,139,0.0,2.0,68,0.00,,,0.00,VWS V14.01,2013-08-10 21:03:00,
2013-08-10 17:08:00,76.2,64.9,29.92,SE,139,0.0,2.0,68,0.00,,,0.00,VWS V14.01,2013-08-10 21:08:00,
2013-08-10 17:13:00,76.0,65.5,29.92,SE,139,0.0,2.0,70,0.00,,,0.00,VWS V14.01,2013-08-10 21:13:00,
2013-08-10 17:18:00,75.9,65.8,29.93,SE,139,0.0,2.0,71,0.00,,,0.00,VWS V14.01,2013-08-10 21:18:00,
2013-08-10 17:24:00,75.7,64.8,29.93,SSE,162,0.0,2.0,69,0.00,,,0.00,VWS V14.01,2013-08-10 21:24:00,
2013-08-10 17:29:00,75.7,66.0,29.93,WSW,255,0.0,2.0,72,0.00,,,0.00,VWS V14.01,2013-08-10 21:29:00,
2013-08-10 17:34:00,75.5,65.4,29.93,SW,227,0.0,2.0,71,0.00,,,0.00,VWS V14.01,2013-08-10 21:34:00,
2013-08-10 17:39:00,75.4,63.3,29.94,West,259,0.0,2.0,66,0.00,,,0.00,VWS V14.01,2013-08-10 21:39:00,
2013-08-10 17:44:00,75.5,64.2,29.94,West,259,0.0,2.0,68,0.00,,,0.00,VWS V14.01,2013-08-10 21:44:00,
2013-08-10 17:49:00,75.4,64.5,29.94,WSW,252,0.0,2.0,69,0.00,,,0.00,VWS V14.01,2013-08-10 21:49:00,
2013-08-10 17:54:00,75.2,64.3,29.94,WSW,252,0.0,2.0,69,0.00,,,0.00,VWS V14.01,2013-08-10 21:54:00,
2013-08-10 17:59:00,75.0,64.6,29.94,WSW,252,0.0,2.0,70,0.00,,,0.00,VWS V14.01,2013-08-10 21:59:00,
2013-08-10 18:05:00,74.6,63.3,29.94,WSW,252,0.0,0.0,68,0.00,,,0.00,VWS V14.01,2013-08-10 22:05:00,
2013-08-10 18:10:00,74.2,65.4,29.94,WSW,252,0.0,0.0,74,0.00,,,0.00,VWS V14.01,2013-08-10 22:10:00,
2013-08-10 18:15:00,73.7,63.7,29.94,WSW,252,0.0,0.0,71,0.00,,,0.00,VWS V14.01,2013-08-10 22:15:00,
2013-08-10 18:20:00,73.1,63.9,29.95,WSW,252,0.0,0.0,73,0.00,,,0.00,VWS V14.01,2013-08-10 22:20:00,
2013-08-10 18:25:00,72.6,64.2,29.94,SSE,167,0.0,2.0,75,0.00,,,0.00,VWS V14.01,2013-08-10 22:25:00,
2013-08-10 18:30:00,72.2,63.5,29.94,SSE,167,0.0,2.0,74,0.00,,,0.00,VWS V14.01,2013-08-10 22:30:00,
2013-08-10 18:35:00,71.9,63.9,29.95,SSE,167,0.0,0.0,76,0.00,,,0.00,VWS V14.01,2013-08-10 22:35:00,
2013-08-10 18:40:00,71.5,63.9,29.95,SSE,167,0.0,0.0,77,0.00,,,0.00,VWS V14.01,2013-08-10 22:40:00,
2013-08-10 18:45:00,71.3,63.0,29.95,WNW,290,0.0,2.0,75,0.00,,,0.00,VWS V14.01,2013-08-10 22:45:00,
2013-08-10 18:50:00,71.1,62.8,29.95,West,263,0.0,2.0,75,0.00,,,0.00,VWS V14.01,2013-08-10 22:50:00,
2013-08-10 18:55:00,70.9,63.3,29.95,SSE,153,0.0,2.0,77,0.00,,,0.00,VWS V14.01,2013-08-10 22:55:00,
2013-08-10 19:00:00,70.6,63.4,29.95,SSE,153,0.0,2.0,78,0.00,,,0.00,VWS V14.01,2013-08-10 23:00:00,
2013-08-10 19:06:00,70.4,62.5,29.96,SSE,153,0.0,0.0,76,0.00,,,0.00,VWS V14.01,2013-08-10 23:06:00,
2013-08-10 19:11:00,70.2,63.0,29.96,SSE,153,0.0,0.0,78,0.00,,,0.00,VWS V14.01,2013-08-10 23:11:00,
2013-08-10 19:16:00,69.9,63.1,29.96,SSE,153,0.0,0.0,79,0.00,,,0.00,VWS V14.01,2013-08-10 23:16:00,
2013-08-10 19:21:00,69.7,63.3,29.96,SSE,153,0.0,0.0,80,0.00,,,0.00,VWS V14.01,2013-08-10 23:21:00,
2013-08-10 19:26:00,69.4,63.0,29.96,SSE,153,0.0,0.0,80,0.00,,,0.00,VWS V14.01,2013-08-10 23:26:00,
2013-08-10 19:31:00,69.2,63.1,29.96,SSE,153,0.0,0.0,81,0.00,,,0.00,VWS V14.01,2013-08-10 23:31:00,
2013-08-10 19:36:00,69.0,63.3,29.97,SSE,153,0.0,0.0,82,0.00,,,0.00,VWS V14.01,2013-08-10 23:36:00,
2013-08-10 19:41:00,68.6,62.9,29.97,SSE,153,0.0,0.0,82,0.00,,,0.00,VWS V14.01,2013-08-10 23:41:00,
2013-08-10 19:46:00,68.3,62.9,29.97,SSE,153,0.0,0.0,83,0.00,,,0.00,VWS V14.01,2013-08-10 23:46:00,
2013-08-10 19:51:00,67.9,62.9,29.97,SSE,153,0.0,0.0,84,0.00,,,0.00,VWS V14.01,2013-08-10 23:51:00,
2013-08-10 19:56:00,67.5,62.5,29.97,SSE,153,0.0,0.0,84,0.00,,,0.00,VWS V14.01,2013-08-10 23:56:00,
2013-08-10 20:01:00,67.2,62.9,29.97,SSE,153,0.0,0.0,86,0.00,,,0.00,VWS V14.01,2013-08-11 00:01:00,
2013-08-10 20:06:00,66.8,62.5,29.98,SSE,153,0.0,0.0,86,0.00,,,0.00,VWS V14.01,2013-08-11 00:06:00,
2013-08-10 20:08:00,66.7,62.4,29.98,SSE,153,0.0,0.0,86,0.00,,,0.00,VWS V14.01,2013-08-11 00:08:00,
2013-08-10 20:13:00,66.5,62.5,29.98,SSE,153,0.0,0.0,87,0.00,,,0.00,VWS V14.01,2013-08-11 00:13:00,
2013-08-10 20:18:00,66.2,62.5,29.99,SSE,153,0.0,0.0,88,0.00,,,0.00,VWS V14.01,2013-08-11 00:18:00,
2013-08-10 20:23:00,65.9,62.2,29.99,SSE,153,0.0,0.0,88,0.00,,,0.00,VWS V14.01,2013-08-11 00:23:00,
2013-08-10 20:29:00,65.6,62.3,29.99,SSE,153,0.0,0.0,89,0.00,,,0.00,VWS V14.01,2013-08-11 00:29:00,
2013-08-10 20:34:00,65.2,61.9,29.99,SSE,153,0.0,0.0,89,0.00,,,0.00,VWS V14.01,2013-08-11 00:34:00,
2013-08-10 20:38:00,64.9,61.6,30.00,SSE,153,0.0,0.0,89,0.00,,,0.00,VWS V14.01,2013-08-11 00:38:00,
2013-08-10 20:43:00,64.7,61.7,30.00,SSE,153,0.0,0.0,90,0.00,,,0.00,VWS V14.01,2013-08-11 00:43:00,
2013-08-10 20:49:00,64.4,61.7,30.00,SSE,153,0.0,0.0,91,0.00,,,0.00,VWS V14.01,2013-08-11 00:49:00,
2013-08-10 20:54:00,64.1,61.4,30.00,SSE,153,0.0,0.0,91,0.00,,,0.00,VWS V14.01,2013-08-11 00:54:00,
2013-08-10 20:59:00,63.9,61.5,30.00,SSE,153,0.0,0.0,92,0.00,,,0.00,VWS V14.01,2013-08-11 00:59:00,
2013-08-10 21:04:00,63.7,61.3,30.00,SSE,153,0.0,1.0,92,0.00,,,0.00,VWS V14.01,2013-08-11 01:04:00,
2013-08-10 21:09:00,63.5,61.1,30.01,SSE,153,0.0,1.0,92,0.00,,,0.00,VWS V14.01,2013-08-11 01:09:00,
2013-08-10 21:14:00,63.2,60.8,30.01,SSE,153,0.0,1.0,92,0.00,,,0.00,VWS V14.01,2013-08-11 01:14:00,
2013-08-10 21:19:00,63.0,61.0,30.01,SSE,153,0.0,1.0,93,0.00,,,0.00,VWS V14.01,2013-08-11 01:19:00,
2013-08-10 21:24:00,62.8,60.8,30.01,SSE,153,0.0,1.0,93,0.00,,,0.00,VWS V14.01,2013-08-11 01:24:00,
2013-08-10 21:29:00,62.7,60.7,30.01,SSE,153,0.0,1.0,93,0.00,,,0.00,VWS V14.01,2013-08-11 01:29:00,
2013-08-10 21:34:00,62.5,60.5,30.01,SSE,153,0.0,0.0,93,0.00,,,0.00,VWS V14.01,2013-08-11 01:34:00,
2013-08-10 21:39:00,62.3,60.6,30.01,SSE,153,0.0,0.0,94,0.00,,,0.00,VWS V14.01,2013-08-11 01:39:00,
2013-08-10 21:45:00,62.1,60.4,30.01,SSE,153,0.0,0.0,94,0.00,,,0.00,VWS V14.01,2013-08-11 01:45:00,
2013-08-10 21:50:00,61.9,60.2,30.02,SSE,153,0.0,0.0,94,0.00,,,0.00,VWS V14.01,2013-08-11 01:50:00,
2013-08-10 21:55:00,61.7,60.0,30.02,SSE,153,0.0,0.0,94,0.00,,,0.00,VWS V14.01,2013-08-11 01:55:00,
2013-08-10 22:00:00,61.6,59.9,30.02,SSE,153,0.0,0.0,94,0.00,,,0.00,VWS V14.01,2013-08-11 02:00:00,
2013-08-10 22:05:00,61.4,60.0,30.02,SSE,153,0.0,0.0,95,0.00,,,0.00,VWS V14.01,2013-08-11 02:05:00,
2013-08-10 22:10:00,61.2,59.5,30.02,SSE,153,0.0,0.0,94,0.00,,,0.00,VWS V14.01,2013-08-11 02:10:00,
2013-08-10 22:15:00,61.1,59.7,30.02,SSE,153,0.0,0.0,95,0.00,,,0.00,VWS V14.01,2013-08-11 02:15:00,
2013-08-10 22:20:00,60.9,59.5,30.02,SSE,153,0.0,0.0,95,0.00,,,0.00,VWS V14.01,2013-08-11 02:20:00,
2013-08-10 22:25:00,60.7,59.3,30.02,SSE,153,0.0,0.0,95,0.00,,,0.00,VWS V14.01,2013-08-11 02:25:00,
2013-08-10 22:30:00,60.5,59.1,30.03,SSE,153,0.0,0.0,95,0.00,,,0.00,VWS V14.01,2013-08-11 02:30:00,
2013-08-10 22:35:00,60.4,59.0,30.02,SSE,153,0.0,0.0,95,0.00,,,0.00,VWS V14.01,2013-08-11 02:35:00,
2013-08-10 22:40:00,60.2,58.8,30.02,SSE,153,0.0,0.0,95,0.00,,,0.00,VWS V14.01,2013-08-11 02:40:00,
2013-08-10 22:45:00,60.0,58.6,30.03,SSE,153,0.0,0.0,95,0.00,,,0.00,VWS V14.01,2013-08-11 02:45:00,
2013-08-10 22:50:00,59.8,58.7,30.03,SSE,153,0.0,0.0,96,0.00,,,0.00,VWS V14.01,2013-08-11 02:50:00,
2013-08-10 22:56:00,59.6,58.5,30.03,SSE,153,0.0,0.0,96,0.00,,,0.00,VWS V14.01,2013-08-11 02:56:00,
2013-08-10 23:01:00,59.5,58.4,30.03,SSE,153,0.0,0.0,96,0.00,,,0.00,VWS V14.01,2013-08-11 03:01:00,
2013-08-10 23:06:00,59.3,58.2,30.03,SSE,153,0.0,0.0,96,0.00,,,0.00,VWS V14.01,2013-08-11 03:06:00,
2013-08-10 23:11:00,59.1,58.0,30.03,SSE,153,0.0,0.0,96,0.00,,,0.00,VWS V14.01,2013-08-11 03:11:00,
2013-08-10 23:16:00,58.9,57.8,30.03,SSE,153,0.0,0.0,96,0.00,,,0.00,VWS V14.01,2013-08-11 03:16:00,
2013-08-10 23:21:00,58.8,57.7,30.03,SSE,153,0.0,0.0,96,0.00,,,0.00,VWS V14.01,2013-08-11 03:21:00,
2013-08-10 23:26:00,58.6,57.5,30.03,SSE,153,0.0,0.0,96,0.00,,,0.00,VWS V14.01,2013-08-11 03:26:00,
2013-08-10 23:31:00,58.4,57.3,30.03,SSE,153,0.0,0.0,96,0.00,,,0.00,VWS V14.01,2013-08-11 03:31:00,
2013-08-10 23:36:00,58.2,57.1,30.03,SSE,153,0.0,0.0,96,0.00,,,0.00,VWS V14.01,2013-08-11 03:36:00,
2013-08-10 23:41:00,58.1,57.0,30.03,SSE,153,0.0,0.0,96,0.00,,,0.00,VWS V14.01,2013-08-11 03:41:00,
2013-08-10 23:46:00,57.9,56.8,30.03,SSE,153,0.0,0.0,96,0.00,,,0.00,VWS V14.01,2013-08-11 03:46:00,
2013-08-10 23:51:00,57.8,56.7,30.03,SSE,153,0.0,0.0,96,0.00,,,0.00,VWS V14.01,2013-08-11 03:51:00,
2013-08-10 23:57:00,57.6,56.5,30.03,SSE,153,0.0,0.0,96,0.00,,,0.00,VWS V14.01,2013-08-11 03:57:00,